Houston, Minnesota
Current Conditions -  °F | °C
As of 3:53 PM on Monday 24 Nov 2014 (Local Time) from KLSE Reporting Station
Overcast Overcast  
Wind Chill: 13°   Ceiling: 2000
Heat Index: 26°   Visibility: 10mi
Dew Point: 19°   Wind: 17mph
Humidity: 75%   Direction: 290°WNW
Pressure: 29.53"   Gusts: 23mph
Location:  43.76°N, 91.57°W
Report Text: KLSE 242153Z 29015G20KT 10SM OVC020 M03/M07 A2953 RMK AO2 UPB13E19SNE13 SLP010 P0000 T10331072
Loading
Personal Weather Stations






























Interactive Weather Map New forecast layout! Learn more

10-Day Weather Forecast

Advertisements
Track Severe Weather on mobile